Time,TemperatureF,DewpointF,PressureIn,WindDirection,WindDirectionDegrees,WindSpeedMPH,WindSpeedGustMPH,Humidity,HourlyPrecipIn,Conditions,Clouds,dailyrainin,SoftwareType,DateUTC
2013-05-29 00:01:00,74.8,73.6,30.11,North,0,0.0,4.0,96,0.00,,,0.00,meteohub,2013-05-29 04:01:00,
2013-05-29 00:02:00,74.8,73.6,30.11,NW,315,2.0,4.0,96,0.00,,,0.00,meteohub,2013-05-29 04:02:00,
2013-05-29 00:07:00,74.8,73.6,30.11,NW,315,2.0,4.0,96,0.00,,,0.00,meteohub,2013-05-29 04:07:00,
2013-05-29 00:09:00,74.7,73.4,30.11,North,0,4.0,4.0,96,0.00,,,0.00,meteohub,2013-05-29 04:09:00,
2013-05-29 00:14:00,74.7,73.4,30.11,North,0,2.0,3.0,96,0.00,,,0.00,meteohub,2013-05-29 04:14:00,
2013-05-29 00:19:00,74.5,73.2,30.11,West,270,4.0,4.0,96,0.00,,,0.00,meteohub,2013-05-29 04:19:00,
2013-05-29 00:24:00,74.5,73.6,30.11,NW,315,4.0,4.0,97,0.00,,,0.00,meteohub,2013-05-29 04:24:00,
2013-05-29 00:29:00,74.3,73.4,30.11,North,0,4.0,4.0,97,0.00,,,0.00,meteohub,2013-05-29 04:29:00,
2013-05-29 00:35:00,74.3,73.4,30.11,NW,315,2.0,5.0,97,0.00,,,0.00,meteohub,2013-05-29 04:35:00,
2013-05-29 00:40:00,74.1,73.2,30.10,NW,315,2.0,5.0,97,0.00,,,0.00,meteohub,2013-05-29 04:40:00,
2013-05-29 00:45:00,74.1,73.2,30.11,North,0,4.0,4.0,97,0.00,,,0.00,meteohub,2013-05-29 04:45:00,
2013-05-29 00:50:00,73.9,73.4,30.11,WNW,293,5.0,5.0,98,0.00,,,0.00,meteohub,2013-05-29 04:50:00,
2013-05-29 00:55:00,73.9,73.4,30.11,ESE,113,2.0,4.0,98,0.00,,,0.00,meteohub,2013-05-29 04:55:00,
2013-05-29 01:00:00,73.9,73.4,30.11,North,0,3.0,5.0,98,0.00,,,0.00,meteohub,2013-05-29 05:00:00,
2013-05-29 01:05:00,73.8,73.2,30.10,NW,315,2.0,5.0,98,0.00,,,0.00,meteohub,2013-05-29 05:05:00,
2013-05-29 01:11:00,73.8,73.2,30.10,WNW,293,2.0,4.0,98,0.00,,,0.00,meteohub,2013-05-29 05:11:00,
2013-05-29 01:16:00,73.8,73.2,30.10,North,0,2.0,4.0,98,0.00,,,0.00,meteohub,2013-05-29 05:16:00,
2013-05-29 01:21:00,73.6,73.2,30.10,NW,315,3.0,4.0,99,0.00,,,0.00,meteohub,2013-05-29 05:21:00,
2013-05-29 01:26:00,73.6,73.2,30.10,West,270,8.0,8.0,99,0.00,,,0.00,meteohub,2013-05-29 05:26:00,
2013-05-29 01:31:00,73.6,73.2,30.10,North,0,5.0,8.0,99,0.00,,,0.00,meteohub,2013-05-29 05:31:00,
2013-05-29 01:36:00,73.4,73.0,30.09,NW,315,2.0,8.0,99,0.00,,,0.00,meteohub,2013-05-29 05:36:00,
2013-05-29 01:41:00,73.4,73.0,30.09,SW,225,0.0,8.0,99,0.00,,,0.00,meteohub,2013-05-29 05:41:00,
2013-05-29 01:47:00,73.4,73.0,30.09,North,0,2.0,5.0,99,0.00,,,0.00,meteohub,2013-05-29 05:47:00,
2013-05-29 01:52:00,73.2,72.3,30.09,NW,315,2.0,3.0,97,0.00,,,0.00,meteohub,2013-05-29 05:52:00,
2013-05-29 01:57:00,73.2,72.3,30.09,NW,315,1.0,3.0,97,0.00,,,0.00,meteohub,2013-05-29 05:57:00,
2013-05-29 02:02:00,73.2,72.3,30.09,NW,315,2.0,3.0,97,0.00,,,0.00,meteohub,2013-05-29 06:02:00,
2013-05-29 02:07:00,73.4,73.0,30.08,NW,315,4.0,6.0,99,0.00,,,0.00,meteohub,2013-05-29 06:07:00,
2013-05-29 02:12:00,73.4,73.0,30.09,North,0,4.0,6.0,99,0.00,,,0.00,meteohub,2013-05-29 06:12:00,
2013-05-29 02:17:00,73.4,73.0,30.09,North,0,8.0,8.0,99,0.00,,,0.00,meteohub,2013-05-29 06:17:00,
2013-05-29 02:22:00,73.4,73.0,30.08,East,90,2.0,8.0,99,0.00,,,0.00,meteohub,2013-05-29 06:22:00,
2013-05-29 02:27:00,73.4,73.0,30.08,NW,315,2.0,8.0,99,0.00,,,0.00,meteohub,2013-05-29 06:27:00,
2013-05-29 02:32:00,73.4,73.0,30.08,NNW,338,3.0,8.0,99,0.00,,,0.00,meteohub,2013-05-29 06:32:00,
2013-05-29 02:38:00,73.6,73.2,30.07,North,0,7.0,8.0,99,0.00,,,0.00,meteohub,2013-05-29 06:38:00,
2013-05-29 02:43:00,73.6,73.2,30.07,NE,45,2.0,8.0,99,0.00,,,0.00,meteohub,2013-05-29 06:43:00,
2013-05-29 02:48:00,73.8,73.4,30.07,West,270,2.0,8.0,99,0.00,,,0.00,meteohub,2013-05-29 06:48:00,
2013-05-29 02:53:00,73.8,73.4,30.07,West,270,2.0,7.0,99,0.00,,,0.00,meteohub,2013-05-29 06:53:00,
2013-05-29 02:58:00,73.8,73.4,30.07,WNW,293,2.0,6.0,99,0.00,,,0.00,meteohub,2013-05-29 06:58:00,
2013-05-29 03:04:00,73.8,73.4,30.07,WNW,293,2.0,6.0,99,0.00,,,0.00,meteohub,2013-05-29 07:04:00,
2013-05-29 03:09:00,73.9,73.6,30.07,NNW,338,3.0,6.0,99,0.00,,,0.00,meteohub,2013-05-29 07:09:00,
2013-05-29 03:14:00,73.8,73.4,30.07,NE,45,2.0,6.0,99,0.00,,,0.00,meteohub,2013-05-29 07:14:00,
2013-05-29 03:19:00,73.8,73.4,30.07,West,270,2.0,6.0,99,0.00,,,0.00,meteohub,2013-05-29 07:19:00,
2013-05-29 03:24:00,73.8,73.4,30.07,North,0,3.0,5.0,99,0.00,,,0.00,meteohub,2013-05-29 07:24:00,
2013-05-29 03:29:00,73.8,73.4,30.07,North,0,2.0,5.0,99,0.00,,,0.00,meteohub,2013-05-29 07:29:00,
2013-05-29 03:35:00,73.8,73.4,30.07,NW,315,2.0,5.0,99,0.00,,,0.00,meteohub,2013-05-29 07:35:00,
2013-05-29 03:40:00,73.8,73.4,30.07,North,0,2.0,5.0,99,0.00,,,0.00,meteohub,2013-05-29 07:40:00,
2013-05-29 03:45:00,73.8,73.4,30.07,North,0,0.0,5.0,99,0.00,,,0.00,meteohub,2013-05-29 07:45:00,
2013-05-29 03:50:00,73.6,73.2,30.07,North,0,2.0,4.0,99,0.00,,,0.00,meteohub,2013-05-29 07:50:00,
2013-05-29 03:55:00,73.6,73.2,30.07,NE,45,2.0,3.0,99,0.00,,,0.00,meteohub,2013-05-29 07:55:00,
2013-05-29 04:00:00,73.4,73.0,30.06,North,0,0.0,3.0,99,0.00,,,0.00,meteohub,2013-05-29 08:00:00,
2013-05-29 04:06:00,73.4,73.0,30.06,West,270,2.0,3.0,99,0.00,,,0.00,meteohub,2013-05-29 08:06:00,
2013-05-29 04:11:00,73.4,73.0,30.06,West,270,2.0,3.0,99,0.00,,,0.00,meteohub,2013-05-29 08:11:00,
2013-05-29 04:16:00,73.4,73.0,30.06,North,0,2.0,3.0,99,0.00,,,0.00,meteohub,2013-05-29 08:16:00,
2013-05-29 04:21:00,73.2,72.3,30.06,West,270,0.0,3.0,97,0.00,,,0.00,meteohub,2013-05-29 08:21:00,
2013-05-29 04:26:00,73.2,72.3,30.06,NW,315,2.0,2.0,97,0.00,,,0.00,meteohub,2013-05-29 08:26:00,
2013-05-29 04:31:00,73.2,72.3,30.06,NW,315,0.0,2.0,97,0.00,,,0.00,meteohub,2013-05-29 08:31:00,
2013-05-29 04:36:00,73.2,72.3,30.05,NW,315,0.0,2.0,97,0.00,,,0.00,meteohub,2013-05-29 08:36:00,
2013-05-29 04:42:00,73.0,72.1,30.05,NW,315,0.0,2.0,97,0.00,,,0.00,meteohub,2013-05-29 08:42:00,
2013-05-29 04:47:00,72.9,72.0,30.05,NW,315,0.0,3.0,97,0.00,,,0.00,meteohub,2013-05-29 08:47:00,
2013-05-29 04:52:00,72.9,72.0,30.05,WNW,293,0.0,3.0,97,0.00,,,0.00,meteohub,2013-05-29 08:52:00,
2013-05-29 04:57:00,72.7,71.8,30.05,West,270,0.0,3.0,97,0.00,,,0.00,meteohub,2013-05-29 08:57:00,
2013-05-29 05:02:00,72.5,71.6,30.05,NW,315,2.0,2.0,97,0.00,,,0.00,meteohub,2013-05-29 09:02:00,
2013-05-29 05:07:00,72.5,71.6,30.06,WNW,293,2.0,3.0,97,0.00,,,0.00,meteohub,2013-05-29 09:07:00,
2013-05-29 05:12:00,72.5,71.6,30.06,NW,315,2.0,3.0,97,0.00,,,0.00,meteohub,2013-05-29 09:12:00,
2013-05-29 05:17:00,72.5,71.6,30.06,North,0,2.0,3.0,97,0.00,,,0.00,meteohub,2013-05-29 09:17:00,
2013-05-29 05:22:00,72.5,71.6,30.06,North,0,2.0,3.0,97,0.00,,,0.00,meteohub,2013-05-29 09:22:00,
2013-05-29 05:27:00,72.5,71.6,30.06,WNW,293,0.0,4.0,97,0.00,,,0.00,meteohub,2013-05-29 09:27:00,
2013-05-29 05:32:00,72.3,71.4,30.06,North,0,2.0,4.0,97,0.00,,,0.00,meteohub,2013-05-29 09:32:00,
2013-05-29 05:37:00,72.3,71.4,30.06,North,0,2.0,4.0,97,0.00,,,0.00,meteohub,2013-05-29 09:37:00,
2013-05-29 05:42:00,72.3,71.4,30.06,NW,315,2.0,4.0,97,0.00,,,0.00,meteohub,2013-05-29 09:42:00,
2013-05-29 05:47:00,72.3,71.4,30.06,North,0,2.0,4.0,97,0.00,,,0.00,meteohub,2013-05-29 09:47:00,
2013-05-29 05:52:00,72.3,71.4,30.06,NW,315,4.0,4.0,97,0.00,,,0.00,meteohub,2013-05-29 09:52:00,
2013-05-29 05:57:00,72.3,71.4,30.06,NW,315,2.0,4.0,97,0.00,,,0.00,meteohub,2013-05-29 09:57:00,
2013-05-29 06:02:00,72.3,71.4,30.06,West,270,4.0,4.0,97,0.00,,,0.00,meteohub,2013-05-29 10:02:00,
2013-05-29 06:07:00,72.3,71.4,30.06,West,270,2.0,4.0,97,0.00,,,0.00,meteohub,2013-05-29 10:07:00,
2013-05-29 06:12:00,72.3,71.4,30.06,SW,225,2.0,4.0,97,0.00,,,0.00,meteohub,2013-05-29 10:12:00,
2013-05-29 06:17:00,72.1,71.2,30.07,NW,315,2.0,4.0,97,0.00,,,0.00,meteohub,2013-05-29 10:17:00,
2013-05-29 06:22:00,72.1,71.2,30.07,NW,315,1.0,3.0,97,0.00,,,0.00,meteohub,2013-05-29 10:22:00,
2013-05-29 06:27:00,72.1,71.2,30.06,NW,315,2.0,3.0,97,0.00,,,0.00,meteohub,2013-05-29 10:27:00,
2013-05-29 06:32:00,72.1,71.2,30.07,North,0,2.0,3.0,97,0.00,,,0.00,meteohub,2013-05-29 10:32:00,
2013-05-29 06:37:00,72.1,71.2,30.06,West,270,2.0,4.0,97,0.00,,,0.00,meteohub,2013-05-29 10:37:00,
2013-05-29 06:42:00,72.1,71.2,30.06,NE,45,2.0,4.0,97,0.00,,,0.00,meteohub,2013-05-29 10:42:00,
2013-05-29 06:47:00,72.0,71.1,30.07,North,0,0.0,4.0,97,0.00,,,0.00,meteohub,2013-05-29 10:47:00,
2013-05-29 06:52:00,72.0,71.1,30.07,SW,225,3.0,3.0,97,0.00,,,0.00,meteohub,2013-05-29 10:52:00,
2013-05-29 06:57:00,72.1,71.2,30.07,NW,315,2.0,3.0,97,0.00,,,0.00,meteohub,2013-05-29 10:57:00,
2013-05-29 07:02:00,72.1,71.2,30.07,West,270,2.0,4.0,97,0.00,,,0.00,meteohub,2013-05-29 11:02:00,
2013-05-29 07:07:00,72.1,71.2,30.07,NW,315,1.0,4.0,97,0.00,,,0.00,meteohub,2013-05-29 11:07:00,
2013-05-29 07:12:00,72.3,71.4,30.07,NW,315,4.0,4.0,97,0.00,,,0.00,meteohub,2013-05-29 11:12:00,
2013-05-29 07:17:00,72.7,71.8,30.07,NW,315,4.0,4.0,97,0.00,,,0.00,meteohub,2013-05-29 11:17:00,
2013-05-29 07:22:00,73.0,72.1,30.08,North,0,3.0,4.0,97,0.00,,,0.00,meteohub,2013-05-29 11:22:00,
2013-05-29 07:27:00,73.2,72.3,30.08,NW,315,2.0,5.0,97,0.00,,,0.00,meteohub,2013-05-29 11:27:00,
2013-05-29 07:32:00,73.6,73.2,30.08,West,270,2.0,5.0,99,0.00,,,0.00,meteohub,2013-05-29 11:32:00,
2013-05-29 07:37:00,74.1,73.8,30.09,North,0,4.0,7.0,99,0.00,,,0.00,meteohub,2013-05-29 11:37:00,
2013-05-29 07:42:00,74.7,73.8,30.09,SW,225,5.0,8.0,97,0.00,,,0.00,meteohub,2013-05-29 11:42:00,
2013-05-29 07:47:00,75.0,73.8,30.09,NW,315,7.0,8.0,96,0.00,,,0.00,meteohub,2013-05-29 11:47:00,
2013-05-29 07:52:00,75.6,73.8,30.09,NW,315,8.0,8.0,94,0.00,,,0.00,meteohub,2013-05-29 11:52:00,
2013-05-29 07:57:00,75.9,73.8,30.09,NW,315,4.0,8.0,93,0.00,,,0.00,meteohub,2013-05-29 11:57:00,
2013-05-29 08:02:00,76.3,73.8,30.09,North,0,5.0,8.0,92,0.00,,,0.00,meteohub,2013-05-29 12:02:00,
2013-05-29 08:07:00,76.5,73.2,30.09,North,0,8.0,8.0,90,0.00,,,0.00,meteohub,2013-05-29 12:07:00,
2013-05-29 08:12:00,76.8,73.6,30.09,NNW,338,8.0,8.0,90,0.00,,,0.00,meteohub,2013-05-29 12:12:00,
2013-05-29 08:17:00,77.2,73.4,30.10,NE,45,5.0,8.0,88,0.00,,,0.00,meteohub,2013-05-29 12:17:00,
2013-05-29 08:22:00,77.5,73.4,30.10,NE,45,4.0,8.0,87,0.00,,,0.00,meteohub,2013-05-29 12:22:00,
2013-05-29 08:27:00,77.7,73.6,30.09,North,0,2.0,8.0,87,0.00,,,0.00,meteohub,2013-05-29 12:27:00,
2013-05-29 08:32:00,78.4,73.9,30.10,NNW,338,8.0,8.0,86,0.00,,,0.00,meteohub,2013-05-29 12:32:00,
2013-05-29 08:37:00,79.2,73.6,30.10,NNE,23,8.0,8.0,83,0.00,,,0.00,meteohub,2013-05-29 12:37:00,
2013-05-29 08:42:00,79.2,73.6,30.10,North,0,4.0,8.0,83,0.00,,,0.00,meteohub,2013-05-29 12:42:00,
2013-05-29 08:47:00,79.7,73.8,30.10,North,0,3.0,9.0,82,0.00,,,0.00,meteohub,2013-05-29 12:47:00,
2013-05-29 08:53:00,80.2,73.9,30.10,NE,45,5.0,9.0,81,0.00,,,0.00,meteohub,2013-05-29 12:53:00,
2013-05-29 08:58:00,80.6,73.9,30.10,North,0,2.0,9.0,80,0.00,,,0.00,meteohub,2013-05-29 12:58:00,
2013-05-29 09:03:00,81.7,73.4,30.09,NW,315,3.0,6.0,76,0.00,,,0.00,meteohub,2013-05-29 13:03:00,
2013-05-29 09:08:00,82.0,74.1,30.10,NNW,338,2.0,11.0,77,0.00,,,0.00,meteohub,2013-05-29 13:08:00,
2013-05-29 09:13:00,82.4,73.8,30.09,NW,315,5.0,11.0,75,0.00,,,0.00,meteohub,2013-05-29 13:13:00,
2013-05-29 09:18:00,82.2,73.6,30.10,West,270,5.0,11.0,75,0.00,,,0.00,meteohub,2013-05-29 13:18:00,
2013-05-29 09:23:00,82.4,73.2,30.10,North,0,6.0,10.0,74,0.00,,,0.00,meteohub,2013-05-29 13:23:00,
2013-05-29 09:28:00,82.0,72.9,30.10,North,0,4.0,10.0,74,0.00,,,0.00,meteohub,2013-05-29 13:28:00,
2013-05-29 09:33:00,81.7,73.0,30.10,WNW,293,8.0,10.0,75,0.00,,,0.00,meteohub,2013-05-29 13:33:00,
2013-05-29 09:39:00,82.4,73.2,30.10,WNW,293,4.0,10.0,74,0.00,,,0.00,meteohub,2013-05-29 13:39:00,
2013-05-29 09:44:00,82.9,73.8,30.10,NNE,23,4.0,12.0,74,0.00,,,0.00,meteohub,2013-05-29 13:44:00,
2013-05-29 09:49:00,83.3,73.8,30.10,North,0,4.0,12.0,73,0.00,,,0.00,meteohub,2013-05-29 13:49:00,
2013-05-29 09:54:00,83.7,74.1,30.10,NW,315,7.0,11.0,73,0.00,,,0.00,meteohub,2013-05-29 13:54:00,
2013-05-29 09:59:00,83.8,73.8,30.11,West,270,10.0,11.0,72,0.00,,,0.00,meteohub,2013-05-29 13:59:00,
2013-05-29 10:04:00,83.7,73.2,30.11,NW,315,8.0,11.0,71,0.00,,,0.00,meteohub,2013-05-29 14:04:00,
2013-05-29 10:09:00,82.6,73.0,30.11,NE,45,7.0,10.0,73,0.00,,,0.00,meteohub,2013-05-29 14:09:00,
2013-05-29 10:15:00,82.6,73.4,30.11,North,0,7.0,15.0,74,0.00,,,0.00,meteohub,2013-05-29 14:15:00,
2013-05-29 10:20:00,83.3,73.4,30.11,SE,135,6.0,15.0,72,0.00,,,0.00,meteohub,2013-05-29 14:20:00,
2013-05-29 10:25:00,84.2,73.4,30.11,East,90,3.0,15.0,70,0.00,,,0.00,meteohub,2013-05-29 14:25:00,
2013-05-29 10:30:00,85.6,73.9,30.11,NW,315,6.0,15.0,68,0.00,,,0.00,meteohub,2013-05-29 14:30:00,
2013-05-29 10:35:00,85.5,73.2,30.11,North,0,3.0,10.0,67,0.00,,,0.00,meteohub,2013-05-29 14:35:00,
2013-05-29 10:40:00,86.5,73.4,30.11,NW,315,6.0,8.0,65,0.00,,,0.00,meteohub,2013-05-29 14:40:00,
2013-05-29 10:45:00,87.6,73.4,30.11,North,0,7.0,8.0,63,0.00,,,0.00,meteohub,2013-05-29 14:45:00,
2013-05-29 10:50:00,87.3,73.0,30.11,North,0,7.0,11.0,63,0.00,,,0.00,meteohub,2013-05-29 14:50:00,
2013-05-29 10:56:00,86.9,72.9,30.11,SE,135,8.0,11.0,63,0.00,,,0.00,meteohub,2013-05-29 14:56:00,
2013-05-29 11:01:00,86.7,73.6,30.11,NW,315,12.0,12.0,65,0.00,,,0.00,meteohub,2013-05-29 15:01:00,
2013-05-29 11:06:00,86.7,73.0,30.11,NE,45,7.0,12.0,64,0.00,,,0.00,meteohub,2013-05-29 15:06:00,
2013-05-29 11:11:00,88.3,72.7,30.11,North,0,5.0,12.0,60,0.00,,,0.00,meteohub,2013-05-29 15:11:00,
2013-05-29 11:16:00,87.1,72.5,30.11,NE,45,8.0,13.0,62,0.00,,,0.00,meteohub,2013-05-29 15:16:00,
2013-05-29 11:21:00,86.5,72.9,30.11,NE,45,7.0,13.0,64,0.00,,,0.00,meteohub,2013-05-29 15:21:00,
2013-05-29 11:26:00,87.6,73.4,30.11,WNW,293,9.0,13.0,63,0.00,,,0.00,meteohub,2013-05-29 15:26:00,
2013-05-29 11:32:00,87.3,72.1,30.11,North,0,11.0,11.0,61,0.00,,,0.00,meteohub,2013-05-29 15:32:00,
2013-05-29 11:37:00,85.5,72.0,30.11,North,0,11.0,11.0,64,0.00,,,0.00,meteohub,2013-05-29 15:37:00,
2013-05-29 11:42:00,83.5,74.3,30.12,North,0,2.0,11.0,74,0.00,,,0.00,meteohub,2013-05-29 15:42:00,
2013-05-29 11:47:00,81.3,74.8,30.12,ENE,68,8.0,11.0,81,0.01,,,0.01,meteohub,2013-05-29 15:47:00,
2013-05-29 11:52:00,78.6,74.1,30.12,NNE,23,8.0,13.0,86,0.04,,,0.02,meteohub,2013-05-29 15:52:00,
2013-05-29 11:57:00,77.9,74.5,30.12,East,90,5.0,13.0,89,0.05,,,0.05,meteohub,2013-05-29 15:57:00,
2013-05-29 12:02:00,78.6,75.7,30.12,North,0,6.0,13.0,91,0.05,,,0.05,meteohub,2013-05-29 16:02:00,
2013-05-29 12:07:00,79.5,75.4,30.12,NE,45,3.0,11.0,87,0.05,,,0.05,meteohub,2013-05-29 16:07:00,
2013-05-29 12:12:00,80.1,75.6,30.12,NE,45,5.0,11.0,86,0.05,,,0.05,meteohub,2013-05-29 16:12:00,
2013-05-29 12:17:00,80.1,75.2,30.12,North,0,7.0,11.0,85,0.05,,,0.05,meteohub,2013-05-29 16:17:00,
2013-05-29 12:22:00,80.4,75.6,30.12,NE,45,4.0,11.0,85,0.05,,,0.05,meteohub,2013-05-29 16:22:00,
2013-05-29 12:27:00,81.0,75.0,30.12,WNW,293,4.0,10.0,82,0.05,,,0.05,meteohub,2013-05-29 16:27:00,
2013-05-29 12:32:00,81.3,74.8,30.12,NW,315,6.0,10.0,81,0.05,,,0.05,meteohub,2013-05-29 16:32:00,
2013-05-29 12:37:00,81.9,75.0,30.11,North,0,4.0,10.0,80,0.05,,,0.05,meteohub,2013-05-29 16:37:00,
2013-05-29 12:42:00,82.9,73.8,30.11,NW,315,8.0,10.0,74,0.05,,,0.05,meteohub,2013-05-29 16:42:00,
2013-05-29 12:47:00,84.4,73.0,30.11,East,90,13.0,14.0,69,0.04,,,0.05,meteohub,2013-05-29 16:47:00,
2013-05-29 12:52:00,85.3,73.0,30.11,West,270,10.0,14.0,67,0.01,,,0.05,meteohub,2013-05-29 16:52:00,
2013-05-29 12:57:00,86.4,73.6,30.11,NE,45,10.0,15.0,66,0.00,,,0.05,meteohub,2013-05-29 16:57:00,
2013-05-29 13:02:00,86.2,72.1,30.11,WNW,293,9.0,15.0,63,0.00,,,0.05,meteohub,2013-05-29 17:02:00,
2013-05-29 13:07:00,85.6,72.5,30.11,North,0,8.0,15.0,65,0.00,,,0.05,meteohub,2013-05-29 17:07:00,
2013-05-29 13:12:00,85.6,73.0,30.12,North,0,4.0,15.0,66,0.00,,,0.05,meteohub,2013-05-29 17:12:00,
2013-05-29 13:17:00,84.7,72.1,30.11,NW,315,8.0,15.0,66,0.00,,,0.05,meteohub,2013-05-29 17:17:00,
2013-05-29 13:22:00,84.6,72.3,30.11,North,0,8.0,14.0,67,0.00,,,0.05,meteohub,2013-05-29 17:22:00,
2013-05-29 13:27:00,84.9,72.7,30.11,NNW,338,15.0,15.0,67,0.00,,,0.05,meteohub,2013-05-29 17:27:00,
2013-05-29 13:32:00,85.1,73.4,30.11,NNW,338,11.0,15.0,68,0.00,,,0.05,meteohub,2013-05-29 17:32:00,
2013-05-29 13:38:00,84.2,72.0,30.11,SW,225,9.0,15.0,67,0.00,,,0.05,meteohub,2013-05-29 17:38:00,
2013-05-29 13:43:00,83.5,72.7,30.10,NE,45,9.0,15.0,70,0.00,,,0.05,meteohub,2013-05-29 17:43:00,
2013-05-29 13:48:00,83.8,73.0,30.10,SE,135,7.0,15.0,70,0.00,,,0.05,meteohub,2013-05-29 17:48:00,
2013-05-29 13:53:00,83.8,73.0,30.10,North,0,8.0,15.0,70,0.00,,,0.05,meteohub,2013-05-29 17:53:00,
2013-05-29 13:58:00,83.7,73.2,30.10,NNE,23,4.0,17.0,71,0.00,,,0.05,meteohub,2013-05-29 17:58:00,
2013-05-29 14:04:00,84.4,73.9,30.09,NW,315,4.0,17.0,71,0.00,,,0.05,meteohub,2013-05-29 18:04:00,
2013-05-29 14:09:00,85.3,74.3,30.09,NE,45,7.0,17.0,70,0.00,,,0.05,meteohub,2013-05-29 18:09:00,
2013-05-29 14:14:00,85.1,73.8,30.10,WNW,293,8.0,11.0,69,0.00,,,0.05,meteohub,2013-05-29 18:14:00,
2013-05-29 14:19:00,85.1,74.1,30.09,North,0,6.0,12.0,70,0.00,,,0.05,meteohub,2013-05-29 18:19:00,
2013-05-29 14:24:00,85.3,73.6,30.09,NE,45,11.0,12.0,68,0.00,,,0.05,meteohub,2013-05-29 18:24:00,
2013-05-29 14:29:00,85.6,73.9,30.09,NNE,23,5.0,12.0,68,0.00,,,0.05,meteohub,2013-05-29 18:29:00,
2013-05-29 14:35:00,86.4,73.2,30.09,North,0,8.0,12.0,65,0.00,,,0.05,meteohub,2013-05-29 18:35:00,
2013-05-29 14:40:00,86.9,74.1,30.08,SW,225,8.0,12.0,66,0.00,,,0.05,meteohub,2013-05-29 18:40:00,
2013-05-29 14:45:00,87.1,73.9,30.08,NNW,338,7.0,12.0,65,0.00,,,0.05,meteohub,2013-05-29 18:45:00,
2013-05-29 14:50:00,86.5,74.3,30.08,East,90,13.0,13.0,67,0.00,,,0.05,meteohub,2013-05-29 18:50:00,
2013-05-29 14:55:00,86.0,73.2,30.08,NE,45,8.0,14.0,66,0.00,,,0.05,meteohub,2013-05-29 18:55:00,
2013-05-29 15:00:00,85.3,73.0,30.08,North,0,10.0,16.0,67,0.00,,,0.05,meteohub,2013-05-29 19:00:00,
2013-05-29 15:05:00,84.7,72.1,30.08,North,0,10.0,16.0,66,0.00,,,0.05,meteohub,2013-05-29 19:05:00,
2013-05-29 15:11:00,84.6,72.9,30.07,WNW,293,8.0,16.0,68,0.00,,,0.05,meteohub,2013-05-29 19:11:00,
2013-05-29 15:16:00,84.4,73.0,30.07,NE,45,9.0,16.0,69,0.00,,,0.05,meteohub,2013-05-29 19:16:00,
2013-05-29 15:21:00,84.4,72.7,30.07,NNW,338,5.0,14.0,68,0.00,,,0.05,meteohub,2013-05-29 19:21:00,
2013-05-29 15:26:00,84.9,73.2,30.07,North,0,11.0,14.0,68,0.00,,,0.05,meteohub,2013-05-29 19:26:00,
2013-05-29 15:31:00,85.3,73.9,30.06,East,90,7.0,12.0,69,0.00,,,0.05,meteohub,2013-05-29 19:31:00,
2013-05-29 15:36:00,86.2,73.4,30.06,East,90,11.0,11.0,66,0.00,,,0.05,meteohub,2013-05-29 19:36:00,
2013-05-29 15:41:00,87.3,73.0,30.06,East,90,6.0,11.0,63,0.00,,,0.05,meteohub,2013-05-29 19:41:00,
2013-05-29 15:47:00,87.3,73.6,30.06,ENE,68,11.0,13.0,64,0.00,,,0.05,meteohub,2013-05-29 19:47:00,
2013-05-29 15:52:00,86.9,73.2,30.06,NE,45,8.0,13.0,64,0.00,,,0.05,meteohub,2013-05-29 19:52:00,
2013-05-29 15:57:00,86.9,72.9,30.06,NE,45,4.0,13.0,63,0.00,,,0.05,meteohub,2013-05-29 19:57:00,
2013-05-29 16:02:00,87.8,72.1,30.05,SW,225,6.0,13.0,60,0.00,,,0.05,meteohub,2013-05-29 20:02:00,
2013-05-29 16:07:00,89.1,72.9,30.06,North,0,6.0,11.0,59,0.00,,,0.05,meteohub,2013-05-29 20:07:00,
2013-05-29 16:12:00,90.0,71.6,30.05,ENE,68,9.0,11.0,55,0.00,,,0.05,meteohub,2013-05-29 20:12:00,
2013-05-29 16:17:00,90.9,72.0,30.05,SW,225,7.0,11.0,54,0.00,,,0.05,meteohub,2013-05-29 20:17:00,
2013-05-29 16:22:00,91.4,71.2,30.05,NNW,338,8.0,14.0,52,0.00,,,0.05,meteohub,2013-05-29 20:22:00,
2013-05-29 16:27:00,90.9,71.4,30.05,NE,45,9.0,14.0,53,0.00,,,0.05,meteohub,2013-05-29 20:27:00,
2013-05-29 16:32:00,92.1,71.4,30.04,SE,135,10.0,12.0,51,0.00,,,0.05,meteohub,2013-05-29 20:32:00,
2013-05-29 16:37:00,92.3,71.6,30.04,NE,45,12.0,13.0,51,0.00,,,0.05,meteohub,2013-05-29 20:37:00,
2013-05-29 16:42:00,92.3,71.6,30.04,North,0,8.0,13.0,51,0.00,,,0.05,meteohub,2013-05-29 20:42:00,
2013-05-29 16:47:00,92.1,71.4,30.04,NE,45,10.0,13.0,51,0.00,,,0.05,meteohub,2013-05-29 20:47:00,
2013-05-29 16:52:00,89.2,73.6,30.05,NW,315,5.0,13.0,60,0.00,,,0.05,meteohub,2013-05-29 20:52:00,
2013-05-29 16:57:00,86.5,73.8,30.04,North,0,6.0,13.0,66,0.00,,,0.05,meteohub,2013-05-29 20:57:00,
2013-05-29 17:02:00,86.4,73.6,30.04,NE,45,5.0,10.0,66,0.00,,,0.05,meteohub,2013-05-29 21:02:00,
2013-05-29 17:07:00,88.2,74.5,30.04,NNE,23,8.0,10.0,64,0.00,,,0.05,meteohub,2013-05-29 21:07:00,
2013-05-29 17:12:00,90.1,74.3,30.04,NE,45,6.0,9.0,60,0.00,,,0.05,meteohub,2013-05-29 21:12:00,
2013-05-29 17:17:00,91.9,74.5,30.04,NE,45,4.0,9.0,57,0.00,,,0.05,meteohub,2013-05-29 21:17:00,
2013-05-29 17:22:00,92.7,72.5,30.04,NW,315,7.0,10.0,52,0.00,,,0.05,meteohub,2013-05-29 21:22:00,
2013-05-29 17:27:00,91.9,71.8,30.04,North,0,6.0,12.0,52,0.00,,,0.05,meteohub,2013-05-29 21:27:00,
2013-05-29 17:32:00,90.0,71.6,30.04,East,90,12.0,15.0,55,0.00,,,0.05,meteohub,2013-05-29 21:32:00,
2013-05-29 17:37:00,90.0,70.5,30.04,ENE,68,11.0,15.0,53,0.00,,,0.05,meteohub,2013-05-29 21:37:00,
2013-05-29 17:42:00,89.8,70.9,30.04,West,270,8.0,13.0,54,0.00,,,0.05,meteohub,2013-05-29 21:42:00,
2013-05-29 17:47:00,90.9,71.4,30.04,North,0,10.0,13.0,53,0.00,,,0.05,meteohub,2013-05-29 21:47:00,
2013-05-29 17:52:00,91.8,72.1,30.04,NE,45,8.0,13.0,53,0.00,,,0.05,meteohub,2013-05-29 21:52:00,
2013-05-29 17:57:00,92.5,71.8,30.04,NE,45,11.0,11.0,51,0.00,,,0.05,meteohub,2013-05-29 21:57:00,
2013-05-29 18:02:00,92.1,70.9,30.04,SW,225,4.0,11.0,50,0.00,,,0.05,meteohub,2013-05-29 22:02:00,
2013-05-29 18:07:00,91.9,70.7,30.04,NW,315,7.0,11.0,50,0.00,,,0.05,meteohub,2013-05-29 22:07:00,
2013-05-29 18:12:00,90.7,70.7,30.04,NNE,23,11.0,12.0,52,0.00,,,0.05,meteohub,2013-05-29 22:12:00,
2013-05-29 18:17:00,88.9,71.1,30.04,North,0,9.0,14.0,56,0.00,,,0.05,meteohub,2013-05-29 22:17:00,
2013-05-29 18:22:00,88.9,71.1,30.04,NW,315,8.0,14.0,56,0.00,,,0.05,meteohub,2013-05-29 22:22:00,
2013-05-29 18:27:00,87.8,70.7,30.04,NW,315,4.0,13.0,57,0.00,,,0.05,meteohub,2013-05-29 22:27:00,
2013-05-29 18:32:00,87.4,71.4,30.03,NE,45,7.0,13.0,59,0.00,,,0.05,meteohub,2013-05-29 22:32:00,
2013-05-29 18:37:00,86.5,71.4,30.04,NNE,23,8.0,13.0,61,0.00,,,0.05,meteohub,2013-05-29 22:37:00,
2013-05-29 18:42:00,86.0,71.4,30.04,NE,45,6.0,11.0,62,0.00,,,0.05,meteohub,2013-05-29 22:42:00,
2013-05-29 18:47:00,85.3,71.8,30.04,North,0,6.0,12.0,64,0.00,,,0.05,meteohub,2013-05-29 22:47:00,
2013-05-29 18:52:00,85.1,72.0,30.03,North,0,4.0,13.0,65,0.00,,,0.05,meteohub,2013-05-29 22:52:00,
2013-05-29 18:57:00,85.6,72.5,30.03,North,0,3.0,13.0,65,0.00,,,0.05,meteohub,2013-05-29 22:57:00,
2013-05-29 19:02:00,85.5,72.3,30.04,North,0,4.0,13.0,65,0.00,,,0.05,meteohub,2013-05-29 23:02:00,
2013-05-29 19:07:00,83.7,76.5,30.05,NNW,338,9.0,9.0,79,0.00,,,0.05,meteohub,2013-05-29 23:07:00,
2013-05-29 19:12:00,78.6,75.0,30.05,West,270,10.0,17.0,89,0.02,,,0.07,meteohub,2013-05-29 23:12:00,
2013-05-29 19:17:00,77.5,74.7,30.06,North,0,12.0,17.0,91,0.02,,,0.07,meteohub,2013-05-29 23:17:00,
2013-05-29 19:22:00,75.2,73.4,30.07,East,90,5.0,14.0,94,0.04,,,0.08,meteohub,2013-05-29 23:22:00,
2013-05-29 19:27:00,74.1,72.9,30.07,NNW,338,9.0,15.0,96,0.04,,,0.08,meteohub,2013-05-29 23:27:00,
2013-05-29 19:32:00,73.8,72.9,30.06,North,0,14.0,15.0,97,0.04,,,0.08,meteohub,2013-05-29 23:32:00,
2013-05-29 19:38:00,73.2,72.3,30.06,NW,315,5.0,15.0,97,0.04,,,0.08,meteohub,2013-05-29 23:38:00,
2013-05-29 19:43:00,73.2,72.3,30.06,NE,45,5.0,14.0,97,0.04,,,0.08,meteohub,2013-05-29 23:43:00,
2013-05-29 19:48:00,73.0,72.1,30.06,West,270,4.0,14.0,97,0.04,,,0.08,meteohub,2013-05-29 23:48:00,
2013-05-29 19:53:00,73.0,72.1,30.06,East,90,5.0,9.0,97,0.04,,,0.08,meteohub,2013-05-29 23:53:00,
2013-05-29 19:58:00,73.0,72.1,30.06,West,270,2.0,8.0,97,0.04,,,0.08,meteohub,2013-05-29 23:58:00,
2013-05-29 20:03:00,73.2,72.3,30.06,NE,45,2.0,8.0,97,0.04,,,0.08,meteohub,2013-05-30 00:03:00,
2013-05-29 20:09:00,73.2,72.3,30.06,East,90,3.0,8.0,97,0.01,,,0.08,meteohub,2013-05-30 00:09:00,
2013-05-29 20:14:00,73.2,72.3,30.06,North,0,5.0,7.0,97,0.01,,,0.08,meteohub,2013-05-30 00:14:00,
2013-05-29 20:19:00,73.2,72.3,30.06,North,0,7.0,7.0,97,0.00,,,0.08,meteohub,2013-05-30 00:19:00,
2013-05-29 20:24:00,73.2,72.0,30.07,NE,45,8.0,8.0,96,0.00,,,0.08,meteohub,2013-05-30 00:24:00,
2013-05-29 20:29:00,73.2,72.0,30.07,SW,225,5.0,7.0,96,0.00,,,0.08,meteohub,2013-05-30 00:29:00,
2013-05-29 20:35:00,73.2,72.0,30.07,SW,225,3.0,8.0,96,0.00,,,0.08,meteohub,2013-05-30 00:35:00,
2013-05-29 20:40:00,73.2,72.0,30.07,NE,45,7.0,8.0,96,0.00,,,0.08,meteohub,2013-05-30 00:40:00,
2013-05-29 20:45:00,73.2,72.0,30.07,North,0,3.0,8.0,96,0.00,,,0.08,meteohub,2013-05-30 00:45:00,
2013-05-29 20:50:00,73.2,72.0,30.07,NE,45,9.0,9.0,96,0.00,,,0.08,meteohub,2013-05-30 00:50:00,
2013-05-29 20:55:00,73.0,71.8,30.07,North,0,4.0,9.0,96,0.00,,,0.08,meteohub,2013-05-30 00:55:00,
2013-05-29 21:00:00,73.0,71.8,30.07,NE,45,5.0,9.0,96,0.00,,,0.08,meteohub,2013-05-30 01:00:00,
2013-05-29 21:06:00,73.0,71.8,30.06,NE,45,2.0,8.0,96,0.00,,,0.08,meteohub,2013-05-30 01:06:00,
2013-05-29 21:11:00,72.9,71.6,30.07,North,0,4.0,7.0,96,0.00,,,0.08,meteohub,2013-05-30 01:11:00,
2013-05-29 21:16:00,72.9,71.6,30.07,NW,315,4.0,5.0,96,0.00,,,0.08,meteohub,2013-05-30 01:16:00,
2013-05-29 21:21:00,72.9,71.6,30.07,North,0,5.0,6.0,96,0.00,,,0.08,meteohub,2013-05-30 01:21:00,
2013-05-29 21:26:00,72.9,71.4,30.07,NW,315,4.0,6.0,95,0.00,,,0.08,meteohub,2013-05-30 01:26:00,
2013-05-29 21:31:00,72.9,71.4,30.07,NW,315,3.0,6.0,95,0.00,,,0.08,meteohub,2013-05-30 01:31:00,
2013-05-29 21:36:00,73.0,71.6,30.07,West,270,1.0,7.0,95,0.00,,,0.08,meteohub,2013-05-30 01:36:00,
2013-05-29 21:42:00,73.0,71.6,30.07,East,90,4.0,8.0,95,0.00,,,0.08,meteohub,2013-05-30 01:42:00,
2013-05-29 21:47:00,73.0,71.6,30.07,WNW,293,4.0,8.0,95,0.00,,,0.08,meteohub,2013-05-30 01:47:00,
2013-05-29 21:52:00,73.0,71.6,30.07,North,0,5.0,8.0,95,0.00,,,0.08,meteohub,2013-05-30 01:52:00,
2013-05-29 21:57:00,73.2,71.4,30.07,West,270,3.0,6.0,94,0.00,,,0.08,meteohub,2013-05-30 01:57:00,
2013-05-29 22:02:00,73.2,71.4,30.07,NNW,338,3.0,5.0,94,0.00,,,0.08,meteohub,2013-05-30 02:02:00,
2013-05-29 22:07:00,73.0,71.6,30.07,NW,315,0.0,5.0,95,0.00,,,0.08,meteohub,2013-05-30 02:07:00,
2013-05-29 22:12:00,73.0,71.6,30.07,NW,315,2.0,5.0,95,0.00,,,0.08,meteohub,2013-05-30 02:12:00,
2013-05-29 22:17:00,72.9,71.4,30.07,East,90,3.0,4.0,95,0.00,,,0.08,meteohub,2013-05-30 02:17:00,
2013-05-29 22:22:00,72.9,71.4,30.08,West,270,2.0,4.0,95,0.00,,,0.08,meteohub,2013-05-30 02:22:00,
2013-05-29 22:27:00,72.9,71.6,30.08,NW,315,7.0,7.0,96,0.00,,,0.08,meteohub,2013-05-30 02:27:00,
2013-05-29 22:32:00,72.9,71.6,30.08,NE,45,3.0,7.0,96,0.00,,,0.08,meteohub,2013-05-30 02:32:00,
2013-05-29 22:37:00,72.7,71.4,30.08,West,270,2.0,7.0,96,0.00,,,0.08,meteohub,2013-05-30 02:37:00,
2013-05-29 22:42:00,72.9,71.6,30.09,North,0,2.0,7.0,96,0.00,,,0.08,meteohub,2013-05-30 02:42:00,
2013-05-29 22:47:00,72.9,71.6,30.08,NW,315,2.0,4.0,96,0.00,,,0.08,meteohub,2013-05-30 02:47:00,
2013-05-29 22:52:00,73.0,71.6,30.08,NE,45,3.0,6.0,95,0.00,,,0.08,meteohub,2013-05-30 02:52:00,
2013-05-29 22:57:00,73.0,71.6,30.08,North,0,3.0,6.0,95,0.00,,,0.08,meteohub,2013-05-30 02:57:00,
2013-05-29 23:02:00,73.0,71.6,30.08,North,0,2.0,6.0,95,0.00,,,0.08,meteohub,2013-05-30 03:02:00,
2013-05-29 23:07:00,73.0,71.6,30.08,NW,315,2.0,4.0,95,0.00,,,0.08,meteohub,2013-05-30 03:07:00,
2013-05-29 23:12:00,73.0,71.6,30.08,NW,315,8.0,8.0,95,0.00,,,0.08,meteohub,2013-05-30 03:12:00,
2013-05-29 23:17:00,73.2,71.8,30.09,North,0,5.0,8.0,95,0.00,,,0.08,meteohub,2013-05-30 03:17:00,
2013-05-29 23:22:00,73.4,72.1,30.09,West,270,4.0,8.0,96,0.00,,,0.08,meteohub,2013-05-30 03:22:00,
2013-05-29 23:27:00,73.6,72.3,30.08,NW,315,2.0,11.0,96,0.00,,,0.08,meteohub,2013-05-30 03:27:00,
2013-05-29 23:32:00,73.6,72.3,30.08,NE,45,4.0,11.0,96,0.00,,,0.08,meteohub,2013-05-30 03:32:00,
2013-05-29 23:37:00,73.8,72.5,30.08,East,90,6.0,11.0,96,0.00,,,0.08,meteohub,2013-05-30 03:37:00,
2013-05-29 23:42:00,73.8,72.3,30.08,North,0,9.0,9.0,95,0.00,,,0.08,meteohub,2013-05-30 03:42:00,
2013-05-29 23:47:00,73.9,72.5,30.08,NE,45,5.0,9.0,95,0.00,,,0.08,meteohub,2013-05-30 03:47:00,
2013-05-29 23:52:00,73.9,72.5,30.08,NE,45,5.0,9.0,95,0.00,,,0.08,meteohub,2013-05-30 03:52:00,
2013-05-29 23:57:00,74.1,72.7,30.08,North,0,3.0,9.0,95,0.00,,,0.08,meteohub,2013-05-30 03:57:00,